createdAt,value
2023-11-07T00:09:01.660Z,100057.36
2023-11-07T00:29:24.153Z,100076.08
2023-11-07T00:39:26.833Z,100086.48
2023-11-07T00:49:29.204Z,100089.44
2023-11-07T00:59:31.009Z,100089.91
2023-11-07T01:09:32.842Z,100092.80
2023-11-07T01:19:34.842Z,100091.20
2023-11-07T01:29:37.084Z,100098.23
2023-11-07T01:39:38.859Z,100101.35
2023-11-07T01:49:40.905Z,100094.66
2023-11-07T01:59:42.811Z,100100.29
2023-11-07T02:09:44.701Z,100110.31
2023-11-07T02:19:46.582Z,100108.11
2023-11-07T02:29:49.069Z,100104.66
2023-11-07T02:39:50.812Z,100107.44
2023-11-07T02:49:53.239Z,100109.62
2023-11-07T02:59:55.133Z,100104.29
2023-11-07T03:09:57.124Z,100109.55
2023-11-07T03:19:58.942Z,100123.77
2023-11-07T03:30:00.803Z,100125.98
2023-11-07T03:40:04.673Z,100126.91
2023-11-07T03:50:07.227Z,100132.95
2023-11-07T04:00:11.611Z,100125.65
2023-11-07T04:10:14.316Z,100123.50
2023-11-07T04:20:17.564Z,100125.98
2023-11-07T04:30:19.309Z,100128.09
2023-11-07T04:40:21.001Z,100122.40
2023-11-07T04:50:22.829Z,100129.31
2023-11-07T05:00:25.227Z,100138.23
2023-11-07T05:10:26.900Z,100147.80
2023-11-07T05:20:29.006Z,100151.45
2023-11-07T05:30:31.949Z,100140.98
2023-11-07T05:40:33.637Z,100151.15
2023-11-07T05:50:35.495Z,100158.70
2023-11-07T06:00:37.458Z,100185.11
2023-11-07T06:10:39.132Z,100191.05
2023-11-07T06:20:41.017Z,100206.61
2023-11-07T06:30:43.774Z,100219.70
2023-11-07T06:40:45.510Z,100225.98
2023-11-07T06:50:47.565Z,100227.35
2023-11-07T07:00:49.312Z,100229.84
2023-11-07T07:10:54.051Z,100233.28
2023-11-07T07:20:56.470Z,100238.03
2023-11-07T07:31:01.071Z,100246.65
2023-11-07T07:41:03.345Z,100251.83
2023-11-07T07:51:07.766Z,100267.83
2023-11-07T08:01:11.114Z,100281.08
2023-11-07T08:11:14.489Z,100282.85
2023-11-07T08:21:16.384Z,100290.45
2023-11-07T08:31:18.138Z,100303.86
2023-11-07T08:41:19.888Z,100310.29
2023-11-07T08:51:21.785Z,100316.83
2023-11-07T09:01:24.868Z,100312.52
2023-11-07T09:11:26.561Z,100312.61
2023-11-07T09:21:28.626Z,100307.79
2023-11-07T09:31:30.294Z,100319.18
2023-11-07T09:41:31.960Z,100324.11
2023-11-07T09:51:37.079Z,100326.26
2023-11-07T10:01:39.163Z,100319.63
2023-11-07T10:11:51.224Z,100318.61
2023-11-07T10:21:53.532Z,100319.70
2023-11-07T10:32:11.317Z,100312.05
2023-11-07T10:42:20.664Z,100311.71
2023-11-07T10:52:22.678Z,100311.98
2023-11-07T11:02:27.229Z,100306.75
2023-11-07T11:12:29.494Z,100316.15
2023-11-07T11:22:44.516Z,100320.27
2023-11-07T11:33:06.511Z,100327.48
2023-11-07T11:43:08.372Z,100328.07
2023-11-07T11:53:10.526Z,100332.30
2023-11-07T12:03:17.780Z,100329.03
2023-11-07T12:13:24.366Z,100327.19
2023-11-07T12:23:27.564Z,100326.45
2023-11-07T12:33:41.229Z,100324.51
2023-11-07T12:43:45.724Z,100318.96
2023-11-07T12:53:50.142Z,100308.53
2023-11-07T13:03:51.954Z,100308.30
2023-11-07T13:13:53.718Z,100308.39
2023-11-07T13:23:55.435Z,100313.75
2023-11-07T13:33:57.307Z,100313.00
2023-11-07T13:43:59.698Z,100312.06
2023-11-07T13:54:01.535Z,100322.69
2023-11-07T14:04:03.693Z,100328.30
2023-11-07T14:14:06.363Z,100332.80
2023-11-07T14:24:08.953Z,100330.32
2023-11-07T14:34:11.539Z,100332.89
2023-11-07T14:44:13.957Z,100333.36
2023-11-07T14:54:15.849Z,100329.63
2023-11-07T15:04:18.032Z,100327.60
2023-11-07T15:14:19.764Z,100332.56
2023-11-07T15:24:21.613Z,100341.55
2023-11-07T15:34:23.470Z,100343.31
2023-11-07T15:44:25.132Z,100345.00
2023-11-07T15:54:27.213Z,100347.54
2023-11-07T16:04:29.488Z,100356.85
2023-11-07T16:14:33.391Z,100356.85
2023-11-07T16:24:35.141Z,100349.48
2023-11-07T16:34:37.152Z,100352.38
2023-11-07T16:44:41.089Z,100355.55
2023-11-07T16:54:43.136Z,100361.22
2023-11-07T17:04:45.952Z,100358.02
2023-11-07T17:14:47.702Z,100361.56
2023-11-07T17:24:49.444Z,100360.80
2023-11-07T17:34:55.348Z,100363.23
2023-11-07T17:44:57.529Z,100357.67
2023-11-07T17:54:59.357Z,100346.67
2023-11-07T18:05:01.226Z,100344.14
2023-11-07T18:15:05.260Z,100353.64
2023-11-07T18:25:07.489Z,100349.23
2023-11-07T18:35:09.551Z,100347.76
2023-11-07T18:45:11.934Z,100350.22
2023-11-07T18:55:14.149Z,100351.06
2023-11-07T19:05:16.521Z,100354.67
2023-11-07T19:15:18.251Z,100340.95
2023-11-07T19:25:20.724Z,100340.55
2023-11-07T19:35:22.517Z,100337.63
2023-11-07T19:45:24.275Z,100344.77
2023-11-07T19:55:28.225Z,100346.27
2023-11-07T20:05:29.938Z,100343.80
2023-11-07T20:15:31.688Z,100342.05
2023-11-07T20:25:33.501Z,100340.33
2023-11-07T20:35:40.218Z,100336.71
2023-11-07T20:45:41.963Z,100334.01
2023-11-07T20:55:43.678Z,100324.11
2023-11-07T21:05:45.816Z,100322.43
2023-11-07T21:15:47.496Z,100318.06
2023-11-07T21:25:49.272Z,100315.59
2023-11-07T21:35:50.979Z,100311.17
2023-11-07T21:45:53.249Z,100315.59
2023-11-07T21:55:56.112Z,100314.34
2023-11-07T22:05:59.779Z,100318.33
2023-11-07T22:16:01.484Z,100330.64
2023-11-07T22:26:03.318Z,100321.14
2023-11-07T22:36:06.833Z,100319.67
2023-11-07T22:46:08.741Z,100319.09
2023-11-07T22:56:10.622Z,100316.34
2023-11-07T23:06:12.361Z,100311.98
2023-11-07T23:16:14.144Z,100291.92
2023-11-07T23:26:16.231Z,100280.29
2023-11-07T23:36:18.836Z,100275.46
2023-11-07T23:46:20.618Z,100265.20
2023-11-07T23:56:23.080Z,100269.19
